Time;durP1;ratioP1;P1;durP2;ratioP2;P2;SDS_P1;SDS_P2;PMS_P1;PMS_P2;Temp;Humidity;BMP_temperature;BMP_pressure;BME280_temperature;BME280_humidity;BME280_pressure;Samples;Min_cycle;Max_cycle;Signal;HPM_P1;HPM_P2
2022/03/11 00:01:06;;;;;;;11.95;10.32;;;5.70;99.90;;;;;;5075812;28;20272;-69
2022/03/11 00:03:32;;;;;;;10.68;9.60;;;5.70;99.90;;;;;;5073872;28;20207;-69
2022/03/11 00:05:58;;;;;;;11.05;10.05;;;5.70;99.90;;;;;;5075166;28;20232;-69
2022/03/11 00:08:25;;;;;;;12.10;9.55;;;5.70;99.90;;;;;;5075312;28;20208;-69
2022/03/11 00:10:51;;;;;;;18.05;10.63;;;5.60;99.90;;;;;;5074912;28;20203;-68
2022/03/11 00:13:19;;;;;;;13.35;9.95;;;5.70;99.90;;;;;;5074350;28;20207;-69
2022/03/11 00:15:46;;;;;;;11.18;10.10;;;5.60;99.90;;;;;;5074102;28;20215;-69
2022/03/11 00:18:13;;;;;;;9.25;8.50;;;5.50;99.90;;;;;;5074251;28;20239;-68
2022/03/11 00:20:39;;;;;;;10.10;9.13;;;5.40;99.90;;;;;;5073470;28;20200;-68
2022/03/11 00:23:06;;;;;;;9.98;9.07;;;5.30;99.90;;;;;;5073709;28;20196;-68
2022/03/11 00:25:32;;;;;;;9.85;8.95;;;5.20;99.90;;;;;;5074938;28;20261;-68
2022/03/11 00:27:59;;;;;;;14.23;9.75;;;5.20;99.90;;;;;;5074405;28;20294;-69
2022/03/11 00:30:28;;;;;;;10.73;9.73;;;5.10;99.90;;;;;;5074097;28;20579;-68
2022/03/11 00:32:54;;;;;;;11.43;9.43;;;5.10;99.90;;;;;;5074622;28;20199;-69
2022/03/11 00:35:21;;;;;;;10.50;9.30;;;5.20;99.90;;;;;;5074293;28;20208;-68
2022/03/11 00:37:48;;;;;;;17.60;9.40;;;5.10;99.90;;;;;;5074863;28;20223;-68
2022/03/11 00:40:14;;;;;;;11.95;9.82;;;5.10;99.90;;;;;;5074321;28;20287;-68
2022/03/11 00:42:41;;;;;;;9.77;8.73;;;5.10;99.90;;;;;;5074112;28;20541;-68
2022/03/11 00:45:08;;;;;;;14.52;11.10;;;5.10;99.90;;;;;;5074677;28;20208;-68
2022/03/11 00:47:35;;;;;;;10.38;9.48;;;5.10;99.90;;;;;;5074260;28;20203;-68
2022/03/11 00:50:02;;;;;;;10.65;9.02;;;5.20;99.90;;;;;;5074309;28;20208;-68
2022/03/11 00:52:29;;;;;;;14.73;10.60;;;5.20;99.90;;;;;;5073906;28;20199;-68
2022/03/11 00:54:55;;;;;;;12.07;10.00;;;5.20;99.90;;;;;;5056214;28;20573;-68
2022/03/11 00:57:22;;;;;;;11.63;9.70;;;5.20;99.90;;;;;;5056691;28;20223;-68
2022/03/11 00:59:48;;;;;;;9.73;8.63;;;5.30;99.90;;;;;;5074761;28;20202;-68
2022/03/11 01:02:16;;;;;;;11.07;9.90;;;5.30;99.90;;;;;;5073038;28;20203;-68
2022/03/11 01:04:42;;;;;;;11.82;10.63;;;5.40;99.90;;;;;;5074294;28;20203;-68
2022/03/11 01:07:09;;;;;;;9.98;9.07;;;5.40;99.90;;;;;;5073525;28;20235;-68
2022/03/11 01:09:35;;;;;;;11.30;10.07;;;5.30;99.90;;;;;;5074499;28;20585;-69
2022/03/11 01:12:01;;;;;;;10.30;9.30;;;5.20;99.90;;;;;;5074132;28;20204;-68
2022/03/11 01:14:28;;;;;;;16.15;10.57;;;5.20;99.90;;;;;;5074079;28;20686;-69
2022/03/11 01:16:54;;;;;;;13.15;10.27;;;5.20;99.90;;;;;;5074415;28;20223;-68
2022/03/11 01:19:21;;;;;;;12.75;10.65;;;5.20;99.90;;;;;;5072702;28;20200;-69
2022/03/11 01:21:47;;;;;;;10.68;9.63;;;5.10;99.90;;;;;;5074149;28;20203;-68
2022/03/11 01:24:14;;;;;;;12.10;10.80;;;5.00;99.90;;;;;;5073657;28;20208;-68
2022/03/11 01:26:40;;;;;;;11.57;10.38;;;5.00;99.90;;;;;;5073862;28;20195;-68
2022/03/11 01:29:06;;;;;;;11.10;10.10;;;4.90;99.90;;;;;;5074244;28;20200;-68
2022/03/11 01:31:33;;;;;;;14.98;10.32;;;4.80;99.90;;;;;;5073615;28;20299;-68
2022/03/11 01:33:59;;;;;;;11.90;10.65;;;4.80;99.90;;;;;;5074154;28;20200;-68
2022/03/11 01:36:26;;;;;;;11.95;10.73;;;4.90;99.90;;;;;;5074605;28;20204;-68
2022/03/11 01:38:54;;;;;;;11.85;10.65;;;4.80;99.90;;;;;;5074257;28;20215;-68
2022/03/11 01:41:20;;;;;;;14.73;11.25;;;4.80;99.90;;;;;;5073360;28;20204;-68
2022/03/11 01:44:07;;;;;;;13.40;10.88;;;4.80;99.90;;;;;;5075044;28;20195;-68
2022/03/11 01:46:35;;;;;;;11.50;10.30;;;4.60;99.90;;;;;;5074758;28;20200;-68
2022/03/11 01:49:03;;;;;;;13.80;11.85;;;4.60;99.90;;;;;;5074578;28;20204;-68
2022/03/11 01:51:32;;;;;;;13.95;11.15;;;4.60;99.90;;;;;;5074294;28;20192;-68
2022/03/11 01:54:00;;;;;;;17.88;12.45;;;4.60;99.90;;;;;;5074253;28;20200;-68
2022/03/11 01:56:26;;;;;;;13.30;11.38;;;4.60;99.90;;;;;;5073951;28;20203;-68
2022/03/11 01:58:55;;;;;;;13.30;10.10;;;4.60;99.90;;;;;;5074428;28;20583;-69
2022/03/11 02:01:23;;;;;;;13.98;11.35;;;4.60;99.90;;;;;;5078048;28;20204;-69
2022/03/11 02:03:50;;;;;;;12.18;10.98;;;4.70;99.90;;;;;;5078259;28;20196;-68
2022/03/11 02:06:18;;;;;;;13.02;10.85;;;4.70;99.90;;;;;;5076117;28;20235;-68
2022/03/11 02:08:45;;;;;;;12.77;11.15;;;4.70;99.90;;;;;;5077723;28;20200;-68
2022/03/11 02:11:12;;;;;;;13.80;11.35;;;4.70;99.90;;;;;;5077525;28;20207;-68
2022/03/11 02:13:49;;;;;;;12.18;10.98;;;4.70;99.90;;;;;;5077343;28;20212;-69
2022/03/11 02:16:18;;;;;;;13.82;11.18;;;4.60;99.90;;;;;;5077352;28;20257;-68
2022/03/11 02:18:46;;;;;;;13.18;11.27;;;4.60;99.90;;;;;;5076992;28;20220;-68
2022/03/11 02:21:14;;;;;;;13.10;10.15;;;4.50;99.90;;;;;;5077530;28;20200;-68
2022/03/11 02:23:45;;;;;;;12.77;10.90;;;4.50;99.90;;;;;;5077121;28;20751;-68
2022/03/11 02:26:15;;;;;;;12.30;11.07;;;4.40;99.90;;;;;;5077274;28;20206;-69
2022/03/11 02:28:43;;;;;;;15.23;11.05;;;4.30;99.90;;;;;;5078788;28;20730;-69
2022/03/11 02:31:10;;;;;;;12.73;11.43;;;4.30;99.90;;;;;;5078588;28;20215;-70
2022/03/11 02:33:36;;;;;;;14.45;10.43;;;4.30;99.90;;;;;;5078803;28;20200;-69
2022/03/11 02:36:03;;;;;;;13.98;11.25;;;4.20;99.90;;;;;;5077598;28;20204;-70
2022/03/11 02:38:30;;;;;;;13.88;11.07;;;4.20;99.90;;;;;;5079113;28;20269;-70
2022/03/11 02:40:57;;;;;;;13.00;11.35;;;4.10;99.90;;;;;;5078407;28;20200;-68
2022/03/11 02:43:24;;;;;;;14.45;11.45;;;3.90;99.90;;;;;;5078487;28;20215;-68
2022/03/11 02:45:51;;;;;;;16.55;12.02;;;3.90;99.90;;;;;;5077654;28;20349;-68
2022/03/11 02:48:18;;;;;;;13.57;11.32;;;3.80;99.90;;;;;;5077531;28;20204;-68
2022/03/11 02:50:44;;;;;;;14.32;11.35;;;3.80;99.90;;;;;;5077753;28;20208;-68
2022/03/11 02:53:11;;;;;;;14.45;11.00;;;3.90;99.90;;;;;;5077804;28;20671;-69
2022/03/11 02:55:38;;;;;;;12.32;11.02;;;3.90;99.90;;;;;;5077711;28;20211;-68
2022/03/11 02:58:05;;;;;;;12.80;10.68;;;3.90;99.90;;;;;;5077734;28;20223;-68
2022/03/11 03:00:31;;;;;;;16.88;11.65;;;3.80;99.90;;;;;;5077080;28;20200;-68
2022/03/11 03:02:58;;;;;;;14.35;10.80;;;3.80;99.90;;;;;;5077565;28;20711;-68
2022/03/11 03:05:24;;;;;;;12.32;11.00;;;3.70;99.90;;;;;;5077552;28;20227;-68
2022/03/11 03:07:51;;;;;;;15.35;11.38;;;3.70;99.90;;;;;;5077857;28;20408;-68
2022/03/11 03:10:17;;;;;;;14.25;10.75;;;3.60;99.90;;;;;;5077818;28;20206;-68
2022/03/11 03:12:44;;;;;;;11.90;10.68;;;3.70;99.90;;;;;;5076823;28;20214;-68
2022/03/11 03:15:10;;;;;;;15.93;12.52;;;3.70;99.90;;;;;;5075811;28;20212;-68
2022/03/11 03:17:37;;;;;;;22.10;11.93;;;3.70;99.90;;;;;;5076622;28;20220;-68
2022/03/11 03:20:05;;;;;;;14.75;11.60;;;3.60;99.90;;;;;;5076881;28;20207;-68
2022/03/11 03:22:31;;;;;;;13.88;10.50;;;3.60;99.90;;;;;;5077497;28;20219;-69
2022/03/11 03:24:58;;;;;;;14.55;11.70;;;3.50;99.90;;;;;;5076542;28;20277;-68
2022/03/11 03:27:24;;;;;;;16.60;11.32;;;3.40;99.90;;;;;;5075300;28;20736;-68
2022/03/11 03:29:51;;;;;;;16.58;11.82;;;3.40;99.90;;;;;;5075214;28;20208;-68
2022/03/11 03:32:17;;;;;;;17.02;11.88;;;3.30;99.90;;;;;;5075673;28;20570;-69
2022/03/11 03:34:44;;;;;;;19.10;12.18;;;3.30;99.90;;;;;;5075110;28;20204;-68
2022/03/11 03:37:12;;;;;;;15.50;11.68;;;3.30;99.90;;;;;;5073709;28;20200;-68
2022/03/11 03:39:40;;;;;;;14.43;11.80;;;3.30;99.90;;;;;;5075335;28;20225;-68
2022/03/11 03:42:07;;;;;;;16.60;11.07;;;3.40;99.90;;;;;;5074892;28;20265;-68
2022/03/11 03:44:34;;;;;;;20.30;13.90;;;3.30;99.90;;;;;;5074790;28;20578;-68
2022/03/11 03:47:02;;;;;;;18.75;13.10;;;3.30;99.90;;;;;;5075201;28;20212;-68
2022/03/11 03:49:30;;;;;;;15.70;12.60;;;3.20;99.90;;;;;;5075274;28;20200;-68
2022/03/11 03:51:56;;;;;;;21.60;12.95;;;3.10;99.90;;;;;;5074017;28;20200;-68
2022/03/11 03:54:23;;;;;;;16.23;12.63;;;3.20;99.90;;;;;;5075043;28;20204;-68
2022/03/11 03:56:49;;;;;;;21.48;13.55;;;3.20;99.90;;;;;;5075251;28;20207;-68
2022/03/11 03:59:16;;;;;;;18.05;13.10;;;3.10;99.90;;;;;;5073536;28;20281;-68
2022/03/11 04:01:44;;;;;;;16.23;12.60;;;3.10;99.90;;;;;;5074663;28;20196;-68
2022/03/11 04:04:11;;;;;;;17.33;12.75;;;3.00;99.90;;;;;;5075199;28;20196;-68
2022/03/11 04:06:39;;;;;;;19.85;14.23;;;3.00;99.90;;;;;;5073316;28;20247;-68
2022/03/11 04:09:07;;;;;;;22.42;13.73;;;2.90;99.90;;;;;;5074397;28;20287;-68
2022/03/11 04:11:33;;;;;;;19.48;13.90;;;2.80;99.90;;;;;;5074461;28;20207;-68
2022/03/11 04:14:00;;;;;;;18.05;12.90;;;2.80;99.90;;;;;;5074735;28;20207;-68
2022/03/11 04:16:27;;;;;;;17.15;13.25;;;2.80;1.00;;;;;;5073658;28;20216;-68
2022/03/11 04:18:54;;;;;;;21.15;13.77;;;2.80;1.00;;;;;;5074577;28;20622;-68
2022/03/11 04:21:21;;;;;;;21.25;14.10;;;2.70;99.90;;;;;;5072623;28;20253;-68
2022/03/11 04:23:49;;;;;;;21.02;14.82;;;2.70;1.00;;;;;;5073862;28;20205;-68
2022/03/11 04:26:17;;;;;;;20.58;14.30;;;2.60;1.00;;;;;;5074489;28;20206;-68
2022/03/11 04:28:43;;;;;;;19.42;14.48;;;2.60;96.50;;;;;;5074001;28;20203;-68
2022/03/11 04:31:11;;;;;;;18.27;14.07;;;2.60;99.90;;;;;;5074143;28;20196;-68
2022/03/11 04:33:40;;;;;;;19.60;14.70;;;2.50;99.90;;;;;;5074213;28;20203;-68
2022/03/11 04:36:07;;;;;;;22.60;15.43;;;2.50;99.90;;;;;;5074135;28;20200;-68
2022/03/11 04:38:34;;;;;;;23.40;15.45;;;2.50;99.90;;;;;;5074108;28;20222;-68
2022/03/11 04:41:01;;;;;;;22.27;16.00;;;2.50;99.90;;;;;;5073681;28;20229;-68
2022/03/11 04:43:28;;;;;;;21.88;15.20;;;2.50;99.90;;;;;;5074106;28;20199;-68
2022/03/11 04:45:54;;;;;;;25.63;17.35;;;2.50;99.90;;;;;;5073758;28;20723;-68
2022/03/11 04:48:21;;;;;;;20.67;14.20;;;2.50;99.90;;;;;;5074268;28;20269;-68
2022/03/11 04:50:47;;;;;;;25.48;15.68;;;2.40;99.90;;;;;;5074204;28;20204;-68
2022/03/11 04:53:13;;;;;;;21.67;14.35;;;2.40;99.90;;;;;;5072474;28;20277;-68
2022/03/11 04:55:40;;;;;;;24.42;15.30;;;2.40;99.90;;;;;;5074077;28;20207;-68
2022/03/11 04:58:06;;;;;;;22.90;16.58;;;2.40;99.90;;;;;;5073732;28;20223;-68
2022/03/11 05:00:33;;;;;;;22.35;16.08;;;2.40;99.90;;;;;;5073646;28;20681;-68
2022/03/11 05:03:01;;;;;;;20.63;15.52;;;2.40;99.90;;;;;;5073374;28;20564;-68
2022/03/11 05:05:27;;;;;;;21.42;15.65;;;2.40;99.90;;;;;;5073626;28;20707;-68
2022/03/11 05:07:54;;;;;;;22.27;15.75;;;2.40;99.90;;;;;;5073991;28;20215;-68
2022/03/11 05:10:21;;;;;;;23.40;16.17;;;2.40;99.90;;;;;;5073615;28;20207;-68
2022/03/11 05:12:48;;;;;;;24.23;16.70;;;2.40;99.90;;;;;;5072584;28;20200;-69
2022/03/11 05:15:17;;;;;;;24.30;15.75;;;2.30;99.90;;;;;;5072986;28;20215;-69
2022/03/11 05:17:44;;;;;;;26.63;17.40;;;2.30;99.90;;;;;;5073446;28;20219;-69
2022/03/11 05:20:11;;;;;;;27.80;18.88;;;2.30;99.90;;;;;;5072652;28;20202;-69
2022/03/11 05:22:42;;;;;;;19.33;14.30;;;2.20;99.90;;;;;;5072485;28;20202;-69
2022/03/11 05:25:11;;;;;;;27.50;17.27;;;2.20;99.90;;;;;;5073711;28;20773;-69
2022/03/11 05:27:38;;;;;;;22.30;15.88;;;2.20;99.90;;;;;;5073676;28;20203;-69
2022/03/11 05:30:06;;;;;;;25.42;17.08;;;2.20;99.90;;;;;;5072904;28;20192;-69
2022/03/11 05:32:33;;;;;;;29.45;16.80;;;2.20;99.90;;;;;;5072628;28;20276;-68
2022/03/11 05:34:59;;;;;;;22.05;16.45;;;2.20;99.90;;;;;;5074423;28;20207;-68
2022/03/11 05:37:26;;;;;;;26.67;18.40;;;2.20;99.90;;;;;;5078243;28;20200;-69
2022/03/11 05:39:53;;;;;;;29.15;18.52;;;2.20;99.90;;;;;;5077833;28;20204;-69
2022/03/11 05:42:22;;;;;;;25.77;16.38;;;2.10;99.90;;;;;;5060494;28;20192;-68
2022/03/11 05:44:49;;;;;;;27.63;17.55;;;2.10;99.90;;;;;;5077824;28;20206;-68
2022/03/11 05:47:17;;;;;;;25.38;17.65;;;2.00;99.90;;;;;;5060320;28;20196;-70
2022/03/11 05:49:46;;;;;;;27.67;16.77;;;2.00;99.90;;;;;;5078028;28;20262;-69
2022/03/11 05:52:16;;;;;;;31.35;19.02;;;2.00;99.90;;;;;;5078029;28;20259;-69
2022/03/11 05:54:42;;;;;;;24.27;17.35;;;2.00;99.90;;;;;;5077755;28;20559;-69
2022/03/11 05:57:09;;;;;;;26.05;17.77;;;2.00;99.90;;;;;;5077737;28;20207;-69
2022/03/11 05:59:36;;;;;;;28.45;19.20;;;2.00;99.90;;;;;;5076438;28;20223;-70
2022/03/11 06:02:03;;;;;;;26.80;17.27;;;1.90;99.90;;;;;;5078193;28;20625;-71
2022/03/11 06:04:29;;;;;;;30.13;18.10;;;1.90;99.90;;;;;;5076418;28;20203;-70
2022/03/11 06:06:56;;;;;;;23.52;17.85;;;1.90;99.90;;;;;;5076872;28;20240;-70
2022/03/11 06:09:23;;;;;;;30.17;16.92;;;1.80;99.90;;;;;;5075563;28;20214;-69
2022/03/11 06:11:49;;;;;;;29.48;17.77;;;1.90;99.90;;;;;;5077657;28;20200;-69
2022/03/11 06:14:16;;;;;;;25.35;16.05;;;1.90;99.90;;;;;;5077399;28;20249;-69
2022/03/11 06:16:42;;;;;;;24.35;16.50;;;1.90;99.90;;;;;;5076885;28;20200;-69
2022/03/11 06:19:09;;;;;;;23.95;16.67;;;2.00;99.90;;;;;;5076785;28;20280;-68
2022/03/11 06:21:35;;;;;;;22.52;16.60;;;2.00;99.90;;;;;;5077711;28;20698;-69
2022/03/11 06:24:02;;;;;;;22.10;15.80;;;2.00;99.90;;;;;;5075572;28;20659;-68
2022/03/11 06:26:28;;;;;;;23.50;16.00;;;2.00;99.90;;;;;;5076329;28;20196;-69
2022/03/11 06:28:54;;;;;;;29.27;17.70;;;2.10;99.90;;;;;;5076368;28;20204;-69
2022/03/11 06:31:21;;;;;;;26.20;18.05;;;2.20;99.90;;;;;;5076517;28;20608;-69
2022/03/11 06:33:47;;;;;;;28.20;14.98;;;2.30;99.90;;;;;;5076002;28;20268;-69
2022/03/11 06:36:14;;;;;;;26.85;16.77;;;2.30;99.90;;;;;;5076326;28;20199;-69
2022/03/11 06:38:40;;;;;;;23.15;15.25;;;2.30;99.90;;;;;;5075559;28;20625;-68
2022/03/11 06:41:07;;;;;;;23.02;16.23;;;2.40;99.90;;;;;;5076850;28;20196;-68
2022/03/11 06:43:34;;;;;;;23.63;17.08;;;2.40;99.90;;;;;;5076961;28;20768;-68
2022/03/11 06:46:00;;;;;;;23.08;15.93;;;2.40;99.90;;;;;;5076755;28;20203;-70
2022/03/11 06:48:27;;;;;;;24.60;16.48;;;2.50;99.90;;;;;;5076489;28;20200;-67
2022/03/11 06:50:53;;;;;;;33.72;17.58;;;2.50;99.90;;;;;;5076425;28;20200;-68
2022/03/11 06:53:25;;;;;;;24.77;15.20;;;2.60;99.90;;;;;;5076255;28;20207;-68
2022/03/11 06:55:53;;;;;;;24.67;15.95;;;2.70;99.90;;;;;;5076249;28;20615;-69
2022/03/11 06:58:19;;;;;;;38.65;17.05;;;2.80;99.90;;;;;;5076087;28;20224;-68
2022/03/11 07:00:45;;;;;;;22.65;15.07;;;2.80;99.90;;;;;;5076026;28;20211;-68
2022/03/11 07:03:12;;;;;;;21.05;14.05;;;2.90;99.90;;;;;;5076772;28;20200;-68
2022/03/11 07:05:38;;;;;;;21.27;15.45;;;2.90;99.90;;;;;;5074735;28;20289;-68
2022/03/11 07:08:06;;;;;;;16.40;13.00;;;2.90;99.90;;;;;;5075820;28;20632;-69
2022/03/11 07:10:33;;;;;;;22.02;15.90;;;2.90;99.90;;;;;;5077158;28;20245;-69
2022/03/11 07:13:00;;;;;;;22.52;16.02;;;3.00;99.90;;;;;;5078832;28;20687;-68
2022/03/11 07:15:26;;;;;;;19.83;14.63;;;3.10;99.90;;;;;;5078591;28;20207;-68
2022/03/11 07:17:53;;;;;;;22.17;13.90;;;3.20;99.90;;;;;;5077360;28;20200;-68
2022/03/11 07:20:19;;;;;;;20.67;14.63;;;3.30;99.90;;;;;;5077033;28;20200;-68
2022/03/11 07:22:47;;;;;;;20.30;13.95;;;3.30;99.90;;;;;;5078672;28;20204;-68
2022/03/11 07:25:15;;;;;;;20.85;14.10;;;3.40;99.90;;;;;;5079530;28;20259;-69
2022/03/11 07:27:42;;;;;;;17.30;13.70;;;3.50;99.90;;;;;;5079931;28;20199;-68
2022/03/11 07:30:11;;;;;;;20.90;14.65;;;3.70;99.90;;;;;;5076234;28;20204;-69
2022/03/11 07:32:39;;;;;;;18.10;13.15;;;3.80;99.90;;;;;;5077236;28;20204;-69
2022/03/11 07:35:06;;;;;;;21.67;14.02;;;3.90;99.90;;;;;;5078001;28;20199;-69
2022/03/11 07:37:32;;;;;;;21.50;14.13;;;4.00;99.90;;;;;;5079149;28;20644;-68
2022/03/11 07:39:58;;;;;;;19.05;13.43;;;4.00;99.90;;;;;;5076932;28;20215;-69
2022/03/11 07:42:25;;;;;;;16.63;13.30;;;3.90;99.90;;;;;;5078152;28;20286;-69
2022/03/11 07:44:51;;;;;;;15.77;12.65;;;4.00;99.90;;;;;;5077752;28;20200;-69
2022/03/11 07:47:18;;;;;;;25.23;15.38;;;4.10;99.90;;;;;;5079189;28;20334;-69
2022/03/11 07:49:44;;;;;;;17.13;12.95;;;4.30;99.90;;;;;;5076958;28;20682;-68
2022/03/11 07:52:15;;;;;;;19.63;13.82;;;4.30;99.90;;;;;;5076448;28;20208;-68
2022/03/11 07:54:42;;;;;;;16.38;12.93;;;4.40;99.90;;;;;;5078107;28;20188;-68
2022/03/11 07:57:09;;;;;;;15.63;12.38;;;4.40;99.90;;;;;;5077542;28;20211;-68
2022/03/11 07:59:37;;;;;;;17.10;12.15;;;4.40;99.90;;;;;;5078803;28;20318;-68
2022/03/11 08:02:04;;;;;;;22.00;13.30;;;4.40;99.90;;;;;;5077896;28;20565;-70
2022/03/11 08:04:30;;;;;;;15.15;12.32;;;4.50;99.90;;;;;;5077425;28;20195;-69
2022/03/11 08:07:06;;;;;;;22.58;13.27;;;4.80;99.90;;;;;;5076212;28;20235;-68
2022/03/11 08:09:34;;;;;;;24.95;12.63;;;4.80;99.90;;;;;;5077712;28;20199;-68
2022/03/11 08:12:00;;;;;;;17.50;12.68;;;4.80;99.90;;;;;;5077409;28;20211;-68
2022/03/11 08:14:27;;;;;;;17.95;13.40;;;5.00;99.90;;;;;;5077105;28;20203;-68
2022/03/11 08:16:53;;;;;;;15.77;11.93;;;5.10;99.90;;;;;;5076755;28;20284;-68
2022/03/11 08:19:21;;;;;;;22.90;13.73;;;5.10;99.90;;;;;;5076971;28;20224;-68
2022/03/11 08:21:48;;;;;;;21.98;13.60;;;5.10;99.90;;;;;;5076379;28;20211;-68
2022/03/11 08:24:14;;;;;;;18.88;13.93;;;5.20;99.90;;;;;;5077699;28;20597;-68
2022/03/11 08:26:41;;;;;;;20.52;13.35;;;5.10;99.90;;;;;;5077908;28;20203;-68
2022/03/11 08:29:07;;;;;;;15.07;12.05;;;5.30;99.90;;;;;;5077465;28;20273;-68
2022/03/11 08:31:34;;;;;;;16.58;12.50;;;5.50;99.90;;;;;;5077502;28;20199;-68
2022/03/11 08:34:00;;;;;;;17.20;12.48;;;5.60;99.90;;;;;;5078027;28;20206;-68
2022/03/11 08:36:27;;;;;;;19.77;13.75;;;5.50;99.90;;;;;;5075517;28;20265;-68
2022/03/11 08:38:53;;;;;;;15.25;12.13;;;5.60;99.90;;;;;;5076928;28;20220;-68
2022/03/11 08:41:21;;;;;;;13.57;11.98;;;5.70;99.90;;;;;;5076765;28;20200;-68
2022/03/11 08:43:49;;;;;;;15.48;11.98;;;5.90;99.90;;;;;;5076039;28;20200;-68
2022/03/11 08:46:15;;;;;;;13.73;11.57;;;5.70;99.90;;;;;;5076098;28;20611;-68
2022/03/11 08:48:43;;;;;;;16.48;12.18;;;5.80;99.90;;;;;;5075452;28;20253;-69
2022/03/11 08:51:11;;;;;;;17.05;12.40;;;5.80;99.90;;;;;;5077558;28;20226;-69
2022/03/11 08:53:37;;;;;;;19.75;12.27;;;5.90;99.90;;;;;;5076742;28;20207;-68
2022/03/11 08:56:04;;;;;;;15.00;11.10;;;6.10;99.90;;;;;;5076200;28;20195;-68
2022/03/11 08:58:30;;;;;;;17.98;12.48;;;6.30;99.90;;;;;;5075515;28;20212;-68
2022/03/11 09:00:57;;;;;;;15.05;11.55;;;6.40;99.90;;;;;;5078968;28;20543;-68
2022/03/11 09:03:24;;;;;;;13.60;11.40;;;6.50;99.90;;;;;;5079486;28;20200;-69
2022/03/11 09:05:51;;;;;;;15.60;12.27;;;6.30;99.90;;;;;;5078815;28;20307;-69
2022/03/11 09:08:17;;;;;;;14.15;12.00;;;6.30;99.90;;;;;;5078609;28;20654;-69
2022/03/11 09:10:44;;;;;;;14.25;11.93;;;6.20;99.90;;;;;;5082855;28;20204;-69
2022/03/11 09:13:10;;;;;;;13.50;12.10;;;6.30;99.90;;;;;;5082674;28;20205;-69
2022/03/11 09:15:37;;;;;;;16.45;11.70;;;6.40;99.90;;;;;;5086572;28;20196;-69
2022/03/11 09:18:03;;;;;;;16.10;11.63;;;6.70;99.90;;;;;;5084051;28;20631;-69
2022/03/11 09:20:30;;;;;;;24.00;11.85;;;6.80;99.90;;;;;;5083126;28;20212;-69
2022/03/11 09:22:56;;;;;;;13.30;11.50;;;6.90;99.90;;;;;;5081821;28;20195;-69
2022/03/11 09:25:23;;;;;;;19.27;12.20;;;7.00;99.90;;;;;;5080849;28;20265;-69
2022/03/11 09:27:49;;;;;;;15.35;11.32;;;7.10;99.90;;;;;;5082431;28;20203;-69
2022/03/11 09:30:16;;;;;;;17.17;12.07;;;7.00;99.90;;;;;;5084835;28;20219;-69
2022/03/11 09:32:42;;;;;;;14.05;12.60;;;6.90;99.90;;;;;;5084018;28;20222;-69
2022/03/11 09:35:09;;;;;;;14.55;12.38;;;7.10;99.90;;;;;;5086367;28;20297;-70
2022/03/11 09:37:36;;;;;;;19.58;13.20;;;7.00;99.90;;;;;;5082541;28;20215;-69
2022/03/11 09:40:04;;;;;;;14.27;11.60;;;7.10;99.90;;;;;;5082480;28;20226;-70
2022/03/11 09:42:31;;;;;;;21.20;11.43;;;7.20;99.90;;;;;;5084710;28;20261;-69
2022/03/11 09:44:58;;;;;;;18.02;11.07;;;7.20;99.90;;;;;;5082820;28;20715;-70
2022/03/11 09:47:24;;;;;;;14.02;12.57;;;7.50;99.90;;;;;;5079234;28;20609;-70
2022/03/11 09:49:51;;;;;;;14.25;12.73;;;7.70;99.90;;;;;;5078200;28;20216;-69
2022/03/11 09:52:20;;;;;;;13.18;11.80;;;7.70;99.90;;;;;;5078739;28;20204;-70
2022/03/11 09:54:48;;;;;;;14.40;11.60;;;7.60;99.90;;;;;;5078277;28;20214;-70
2022/03/11 09:57:17;;;;;;;14.00;12.50;;;7.70;99.90;;;;;;5077725;28;20272;-70
2022/03/11 09:59:45;;;;;;;15.40;13.50;;;7.90;99.90;;;;;;5077435;28;20227;-70
2022/03/11 10:02:13;;;;;;;19.85;13.93;;;7.90;99.90;;;;;;5079155;28;20219;-69
2022/03/11 10:04:53;;;;;;;14.40;12.00;;;8.10;99.90;;;;;;5080136;28;20204;-70
2022/03/11 10:07:21;;;;;;;20.50;13.07;;;8.10;99.90;;;;;;5080525;28;20732;-69
2022/03/11 10:09:48;;;;;;;20.02;12.07;;;8.10;99.90;;;;;;5085767;28;20219;-69
2022/03/11 10:12:25;;;;;;;16.88;12.52;;;8.00;99.90;;;;;;5079608;28;20200;-69
2022/03/11 10:14:55;;;;;;;14.75;11.95;;;8.10;99.90;;;;;;5081211;28;20188;-69
2022/03/11 10:17:22;;;;;;;15.25;12.00;;;8.00;99.90;;;;;;5080915;28;20208;-70
2022/03/11 10:20:01;;;;;;;16.02;12.45;;;8.40;99.90;;;;;;5081795;28;20216;-69
2022/03/11 10:22:28;;;;;;;19.23;12.90;;;8.40;99.90;;;;;;5084677;28;20180;-69
2022/03/11 10:24:55;;;;;;;12.82;11.52;;;8.50;99.90;;;;;;5085747;28;20204;-69
2022/03/11 10:27:25;;;;;;;15.70;13.00;;;8.70;99.90;;;;;;5084877;28;20196;-69
2022/03/11 10:29:52;;;;;;;13.98;11.93;;;8.60;99.90;;;;;;5082271;28;20287;-69
2022/03/11 10:32:24;;;;;;;24.75;13.23;;;8.70;99.90;;;;;;5080776;28;20293;-69
2022/03/11 10:34:50;;;;;;;20.60;12.30;;;8.90;99.90;;;;;;5080648;28;20283;-69
2022/03/11 10:37:17;;;;;;;19.40;12.70;;;9.10;99.90;;;;;;5081519;28;20267;-69
2022/03/11 10:39:45;;;;;;;18.23;13.95;;;9.10;99.90;;;;;;5080464;28;20223;-70
2022/03/11 10:42:12;;;;;;;15.63;12.65;;;9.10;99.90;;;;;;5079362;28;20227;-69
2022/03/11 10:44:40;;;;;;;13.55;11.90;;;9.40;99.90;;;;;;5082884;28;20191;-69
2022/03/11 10:47:39;;;;;;;22.90;14.13;;;9.50;99.90;;;;;;5078689;28;20200;-70
2022/03/11 10:50:07;;;;;;;20.15;13.90;;;9.80;99.90;;;;;;5080647;28;20574;-69
2022/03/11 10:52:35;;;;;;;14.23;12.73;;;9.80;99.90;;;;;;5083473;28;20362;-69
2022/03/11 10:55:23;;;;;;;14.38;12.23;;;9.90;99.90;;;;;;5081911;28;20248;-69
2022/03/11 10:57:54;;;;;;;14.13;12.63;;;9.90;99.90;;;;;;5078596;28;20200;-69
2022/03/11 11:00:25;;;;;;;14.73;13.20;;;10.00;99.90;;;;;;5079242;28;20618;-70
2022/03/11 11:02:59;;;;;;;15.23;13.70;;;10.20;99.90;;;;;;5079288;28;20278;-68
2022/03/11 11:05:28;;;;;;;19.73;13.60;;;10.20;99.90;;;;;;5080246;28;20313;-69
2022/03/11 11:07:56;;;;;;;23.05;13.93;;;10.50;99.90;;;;;;5080805;28;20230;-70
2022/03/11 11:10:25;;;;;;;16.88;14.27;;;10.40;99.90;;;;;;5079899;28;20743;-69
2022/03/11 11:12:52;;;;;;;15.20;13.60;;;10.50;99.90;;;;;;5079629;28;20211;-69
2022/03/11 11:15:20;;;;;;;14.52;13.07;;;10.80;99.90;;;;;;5080105;28;20242;-69
2022/03/11 11:17:51;;;;;;;16.23;14.63;;;10.90;99.90;;;;;;5079062;28;20196;-70
2022/03/11 11:20:46;;;;;;;14.93;12.73;;;11.50;99.90;;;;;;5077481;28;20219;-70
2022/03/11 11:23:15;;;;;;;15.70;13.57;;;11.80;99.90;;;;;;5077588;28;20181;-69
2022/03/11 11:25:43;;;;;;;15.77;14.25;;;11.80;99.90;;;;;;5077220;28;20207;-69
2022/03/11 11:28:18;;;;;;;15.97;13.60;;;12.00;99.90;;;;;;5076089;28;20208;-69
2022/03/11 11:30:46;;;;;;;15.80;13.97;;;12.60;99.90;;;;;;5076438;28;20592;-69
2022/03/11 11:33:14;;;;;;;14.67;13.20;;;12.50;99.90;;;;;;5074866;28;20585;-69
2022/03/11 11:35:43;;;;;;;14.50;13.10;;;13.30;99.90;;;;;;5075409;28;21020;-69
2022/03/11 11:38:32;;;;;;;14.77;13.33;;;13.50;99.90;;;;;;5075097;28;20611;-70
2022/03/11 11:41:01;;;;;;;19.10;12.57;;;12.70;99.90;;;;;;5075568;28;20670;-70
2022/03/11 11:43:29;;;;;;;16.23;12.60;;;12.70;99.90;;;;;;5075484;28;20677;-69
2022/03/11 11:45:57;;;;;;;15.73;13.97;;;13.60;99.90;;;;;;5074847;28;20581;-69
2022/03/11 11:48:33;;;;;;;14.90;13.03;;;14.00;99.90;;;;;;5075096;28;21152;-69
2022/03/11 11:51:01;;;;;;;20.47;12.07;;;13.70;99.90;;;;;;5075413;28;20812;-67
2022/03/11 11:53:52;;;;;;;15.20;13.77;;;14.10;99.90;;;;;;5074305;28;20629;-70
2022/03/11 11:56:29;;;;;;;21.13;15.30;;;13.70;99.90;;;;;;5074307;28;21131;-70
2022/03/11 11:59:02;;;;;;;15.57;13.97;;;13.50;99.90;;;;;;5074372;28;20938;-70
2022/03/11 12:01:48;;;;;;;17.40;12.75;;;13.60;99.90;;;;;;5074865;28;20736;-69
2022/03/11 12:04:37;;;;;;;17.70;13.77;;;14.50;99.90;;;;;;5074326;28;20180;-70
2022/03/11 12:07:14;;;;;;;15.03;12.43;;;14.80;99.90;;;;;;5073946;28;21045;-70
2022/03/11 12:10:01;;;;;;;14.90;13.40;;;14.50;99.90;;;;;;5073901;28;20622;-68
2022/03/11 12:12:34;;;;;;;16.17;12.80;;;15.20;99.90;;;;;;5073684;28;20973;-70
2022/03/11 12:15:01;;;;;;;15.23;13.77;;;14.80;99.90;;;;;;5073969;28;20575;-69
2022/03/11 12:17:45;;;;;;;14.37;12.87;;;14.60;99.90;;;;;;5073526;28;20581;-69
2022/03/11 12:20:31;;;;;;;18.70;11.70;;;14.60;99.90;;;;;;5074142;28;20636;-69
2022/03/11 12:23:03;;;;;;;17.97;13.20;;;14.60;99.90;;;;;;5074115;28;20567;-69
2022/03/11 12:25:31;;;;;;;15.37;13.60;;;14.90;99.90;;;;;;5073850;28;20608;-68
2022/03/11 12:28:16;;;;;;;14.80;13.47;;;14.70;99.90;;;;;;5073761;28;20660;-69
2022/03/11 12:30:57;;;;;;;34.10;15.43;;;15.00;99.90;;;;;;5073808;28;20608;-69
2022/03/11 12:33:35;;;;;;;15.23;13.70;;;15.40;99.90;;;;;;5073632;28;20571;-69
2022/03/11 12:36:11;;;;;;;16.80;13.47;;;15.80;99.90;;;;;;5072831;28;20638;-69
2022/03/11 12:38:39;;;;;;;13.90;12.43;;;15.70;99.90;;;;;;5073278;28;20614;-68
2022/03/11 12:41:10;;;;;;;15.10;13.60;;;15.70;99.90;;;;;;5073578;28;20665;-69